sensor_id;sensor_type;location;lat;lon;timestamp;pressure;altitude;pressure_sealevel;temperature;humidity
32131;BME280;18639;50.716;7.086;2023-05-25T00:00:33;101221.41;;;9.60;100.00
32131;BME280;18639;50.716;7.086;2023-05-25T00:02:58;101228.31;;;9.59;100.00
32131;BME280;18639;50.716;7.086;2023-05-25T00:05:25;101228.31;;;9.59;100.00
32131;BME280;18639;50.716;7.086;2023-05-25T00:07:53;101241.84;;;9.64;100.00
32131;BME280;18639;50.716;7.086;2023-05-25T00:10:19;101220.63;;;9.58;100.00
32131;BME280;18639;50.716;7.086;2023-05-25T00:12:44;101222.53;;;9.54;100.00
32131;BME280;18639;50.716;7.086;2023-05-25T00:15:09;101220.84;;;9.53;100.00
32131;BME280;18639;50.716;7.086;2023-05-25T00:17:35;101225.06;;;9.56;100.00
32131;BME280;18639;50.716;7.086;2023-05-25T00:20:01;101240.44;;;9.57;100.00
32131;BME280;18639;50.716;7.086;2023-05-25T00:22:34;101234.75;;;9.51;100.00
32131;BME280;18639;50.716;7.086;2023-05-25T00:25:00;101216.25;;;9.41;100.00
32131;BME280;18639;50.716;7.086;2023-05-25T00:27:25;101231.03;;;9.38;100.00
32131;BME280;18639;50.716;7.086;2023-05-25T00:29:50;101228.94;;;9.27;100.00
32131;BME280;18639;50.716;7.086;2023-05-25T00:32:17;101238.78;;;9.38;100.00
32131;BME280;18639;50.716;7.086;2023-05-25T00:34:42;101211.59;;;9.12;100.00
32131;BME280;18639;50.716;7.086;2023-05-25T00:37:08;101227.13;;;9.29;100.00
32131;BME280;18639;50.716;7.086;2023-05-25T00:39:33;101229.22;;;9.21;100.00
32131;BME280;18639;50.716;7.086;2023-05-25T00:41:58;101226.41;;;9.25;100.00
32131;BME280;18639;50.716;7.086;2023-05-25T00:44:26;101235.69;;;9.29;100.00
32131;BME280;18639;50.716;7.086;2023-05-25T00:46:53;101230.88;;;9.22;100.00
32131;BME280;18639;50.716;7.086;2023-05-25T00:49:20;101225.09;;;9.17;100.00
32131;BME280;18639;50.716;7.086;2023-05-25T00:51:46;101231.09;;;9.17;100.00
32131;BME280;18639;50.716;7.086;2023-05-25T00:54:16;101221.94;;;9.10;100.00
32131;BME280;18639;50.716;7.086;2023-05-25T00:56:50;101237.09;;;9.18;100.00
32131;BME280;18639;50.716;7.086;2023-05-25T00:59:23;101234.00;;;9.10;100.00
32131;BME280;18639;50.716;7.086;2023-05-25T01:01:52;101232.22;;;9.12;100.00
32131;BME280;18639;50.716;7.086;2023-05-25T01:04:19;101227.25;;;9.07;100.00
32131;BME280;18639;50.716;7.086;2023-05-25T01:06:47;101224.75;;;9.06;100.00
32131;BME280;18639;50.716;7.086;2023-05-25T01:09:15;101240.91;;;9.09;100.00
32131;BME280;18639;50.716;7.086;2023-05-25T01:11:41;101230.94;;;9.02;100.00
32131;BME280;18639;50.716;7.086;2023-05-25T01:14:08;101233.38;;;9.05;100.00
32131;BME280;18639;50.716;7.086;2023-05-25T01:16:35;101223.31;;;8.99;100.00
32131;BME280;18639;50.716;7.086;2023-05-25T01:19:02;101239.78;;;8.96;100.00
32131;BME280;18639;50.716;7.086;2023-05-25T01:21:45;101230.78;;;8.86;100.00
32131;BME280;18639;50.716;7.086;2023-05-25T01:24:17;101239.97;;;8.92;100.00
32131;BME280;18639;50.716;7.086;2023-05-25T01:26:54;101241.78;;;8.90;100.00
32131;BME280;18639;50.716;7.086;2023-05-25T01:29:20;101243.56;;;8.87;100.00
32131;BME280;18639;50.716;7.086;2023-05-25T01:31:47;101232.78;;;8.79;100.00
32131;BME280;18639;50.716;7.086;2023-05-25T01:34:14;101235.47;;;8.76;100.00
32131;BME280;18639;50.716;7.086;2023-05-25T01:36:39;101224.41;;;8.74;100.00
32131;BME280;18639;50.716;7.086;2023-05-25T01:39:05;101223.63;;;8.72;100.00
32131;BME280;18639;50.716;7.086;2023-05-25T01:41:31;101233.81;;;8.75;100.00
32131;BME280;18639;50.716;7.086;2023-05-25T01:43:57;101238.19;;;8.73;100.00
32131;BME280;18639;50.716;7.086;2023-05-25T01:46:33;101225.56;;;8.67;100.00
32131;BME280;18639;50.716;7.086;2023-05-25T01:51:59;101242.44;;;8.74;100.00
32131;BME280;18639;50.716;7.086;2023-05-25T01:54:35;101235.84;;;8.67;100.00
32131;BME280;18639;50.716;7.086;2023-05-25T01:57:06;101237.53;;;8.68;100.00
32131;BME280;18639;50.716;7.086;2023-05-25T01:59:35;101218.28;;;8.57;100.00
32131;BME280;18639;50.716;7.086;2023-05-25T02:02:01;101215.91;;;8.52;100.00
32131;BME280;18639;50.716;7.086;2023-05-25T02:04:28;101225.94;;;8.58;100.00
32131;BME280;18639;50.716;7.086;2023-05-25T02:06:54;101228.53;;;8.58;100.00
32131;BME280;18639;50.716;7.086;2023-05-25T02:09:19;101219.25;;;8.54;100.00
32131;BME280;18639;50.716;7.086;2023-05-25T02:11:45;101232.78;;;8.59;100.00
32131;BME280;18639;50.716;7.086;2023-05-25T02:14:10;101231.84;;;8.60;100.00
32131;BME280;18639;50.716;7.086;2023-05-25T02:16:36;101217.03;;;8.45;100.00
32131;BME280;18639;50.716;7.086;2023-05-25T02:19:01;101223.63;;;8.52;100.00
32131;BME280;18639;50.716;7.086;2023-05-25T02:21:26;101226.84;;;8.57;100.00
32131;BME280;18639;50.716;7.086;2023-05-25T02:23:52;101239.59;;;8.60;100.00
32131;BME280;18639;50.716;7.086;2023-05-25T02:26:22;101210.34;;;8.41;100.00
32131;BME280;18639;50.716;7.086;2023-05-25T02:28:47;101222.16;;;8.47;100.00
32131;BME280;18639;50.716;7.086;2023-05-25T02:31:12;101239.09;;;8.52;100.00
32131;BME280;18639;50.716;7.086;2023-05-25T02:33:37;101226.44;;;8.46;100.00
32131;BME280;18639;50.716;7.086;2023-05-25T02:36:03;101237.59;;;8.47;100.00
32131;BME280;18639;50.716;7.086;2023-05-25T02:38:29;101223.22;;;8.41;100.00
32131;BME280;18639;50.716;7.086;2023-05-25T02:40:54;101230.16;;;8.39;100.00
32131;BME280;18639;50.716;7.086;2023-05-25T02:43:20;101222.59;;;8.36;100.00
32131;BME280;18639;50.716;7.086;2023-05-25T02:45:45;101233.91;;;8.32;100.00
32131;BME280;18639;50.716;7.086;2023-05-25T02:48:10;101223.84;;;8.26;100.00
32131;BME280;18639;50.716;7.086;2023-05-25T02:50:35;101231.41;;;8.29;100.00
32131;BME280;18639;50.716;7.086;2023-05-25T02:53:02;101231.66;;;8.23;100.00
32131;BME280;18639;50.716;7.086;2023-05-25T02:55:27;101219.06;;;8.17;100.00
32131;BME280;18639;50.716;7.086;2023-05-25T02:57:52;101209.13;;;8.08;100.00
32131;BME280;18639;50.716;7.086;2023-05-25T03:00:17;101229.09;;;8.23;100.00
32131;BME280;18639;50.716;7.086;2023-05-25T03:02:44;101224.97;;;8.19;100.00
32131;BME280;18639;50.716;7.086;2023-05-25T03:05:10;101225.75;;;8.21;100.00
32131;BME280;18639;50.716;7.086;2023-05-25T03:07:36;101231.00;;;8.18;100.00
32131;BME280;18639;50.716;7.086;2023-05-25T03:10:01;101215.00;;;8.11;100.00
32131;BME280;18639;50.716;7.086;2023-05-25T03:12:27;101237.00;;;8.18;100.00
32131;BME280;18639;50.716;7.086;2023-05-25T03:14:52;101236.34;;;8.13;100.00
32131;BME280;18639;50.716;7.086;2023-05-25T03:17:17;101253.28;;;8.19;100.00
32131;BME280;18639;50.716;7.086;2023-05-25T03:19:42;101221.44;;;8.01;100.00
32131;BME280;18639;50.716;7.086;2023-05-25T03:22:08;101240.78;;;8.10;100.00
32131;BME280;18639;50.716;7.086;2023-05-25T03:24:33;101227.38;;;8.01;100.00
32131;BME280;18639;50.716;7.086;2023-05-25T03:26:58;101252.00;;;8.09;100.00
32131;BME280;18639;50.716;7.086;2023-05-25T03:29:23;101255.44;;;8.08;100.00
32131;BME280;18639;50.716;7.086;2023-05-25T03:31:49;101259.53;;;8.13;100.00
32131;BME280;18639;50.716;7.086;2023-05-25T03:34:14;101245.41;;;8.01;100.00
32131;BME280;18639;50.716;7.086;2023-05-25T03:36:40;101268.97;;;8.13;100.00
32131;BME280;18639;50.716;7.086;2023-05-25T03:39:10;101265.66;;;8.11;100.00
32131;BME280;18639;50.716;7.086;2023-05-25T03:41:36;101276.59;;;8.16;100.00
32131;BME280;18639;50.716;7.086;2023-05-25T03:44:01;101280.06;;;8.15;100.00
32131;BME280;18639;50.716;7.086;2023-05-25T03:46:26;101271.81;;;8.07;100.00
32131;BME280;18639;50.716;7.086;2023-05-25T03:48:52;101266.81;;;8.02;100.00
32131;BME280;18639;50.716;7.086;2023-05-25T03:51:17;101276.19;;;8.04;100.00
32131;BME280;18639;50.716;7.086;2023-05-25T03:53:42;101268.50;;;8.03;100.00
32131;BME280;18639;50.716;7.086;2023-05-25T03:56:07;101261.19;;;7.92;100.00
32131;BME280;18639;50.716;7.086;2023-05-25T03:58:33;101284.75;;;8.05;100.00
32131;BME280;18639;50.716;7.086;2023-05-25T04:00:58;101273.03;;;7.96;100.00
32131;BME280;18639;50.716;7.086;2023-05-25T04:03:24;101278.09;;;7.99;100.00
32131;BME280;18639;50.716;7.086;2023-05-25T04:05:49;101299.94;;;8.11;100.00
32131;BME280;18639;50.716;7.086;2023-05-25T04:08:15;101308.50;;;8.12;100.00
32131;BME280;18639;50.716;7.086;2023-05-25T04:10:46;101300.53;;;8.18;100.00
32131;BME280;18639;50.716;7.086;2023-05-25T04:13:12;101306.47;;;8.20;100.00
32131;BME280;18639;50.716;7.086;2023-05-25T04:15:38;101303.09;;;8.18;100.00
32131;BME280;18639;50.716;7.086;2023-05-25T04:18:03;101285.41;;;8.10;100.00
32131;BME280;18639;50.716;7.086;2023-05-25T04:20:29;101302.16;;;8.20;100.00
32131;BME280;18639;50.716;7.086;2023-05-25T04:22:55;101299.53;;;8.22;100.00
32131;BME280;18639;50.716;7.086;2023-05-25T04:25:20;101310.41;;;8.28;100.00
32131;BME280;18639;50.716;7.086;2023-05-25T04:27:45;101315.16;;;8.39;100.00
32131;BME280;18639;50.716;7.086;2023-05-25T04:30:11;101305.69;;;8.39;100.00
32131;BME280;18639;50.716;7.086;2023-05-25T04:32:37;101313.13;;;8.47;100.00
32131;BME280;18639;50.716;7.086;2023-05-25T04:35:02;101317.25;;;8.51;100.00
32131;BME280;18639;50.716;7.086;2023-05-25T04:37:29;101317.00;;;8.57;100.00
32131;BME280;18639;50.716;7.086;2023-05-25T04:39:56;101314.44;;;8.57;100.00
32131;BME280;18639;50.716;7.086;2023-05-25T04:42:22;101305.84;;;8.57;100.00
32131;BME280;18639;50.716;7.086;2023-05-25T04:44:48;101311.59;;;8.63;100.00
32131;BME280;18639;50.716;7.086;2023-05-25T04:47:15;101308.13;;;8.64;100.00
32131;BME280;18639;50.716;7.086;2023-05-25T04:49:41;101318.31;;;8.67;100.00
32131;BME280;18639;50.716;7.086;2023-05-25T04:52:06;101309.09;;;8.62;100.00
32131;BME280;18639;50.716;7.086;2023-05-25T04:54:31;101320.50;;;8.76;100.00
32131;BME280;18639;50.716;7.086;2023-05-25T04:56:57;101318.69;;;8.78;100.00
32131;BME280;18639;50.716;7.086;2023-05-25T04:59:22;101318.44;;;8.84;100.00
32131;BME280;18639;50.716;7.086;2023-05-25T05:01:47;101314.78;;;8.90;100.00
32131;BME280;18639;50.716;7.086;2023-05-25T05:04:12;101331.47;;;9.02;100.00
32131;BME280;18639;50.716;7.086;2023-05-25T05:06:40;101333.16;;;9.03;100.00
32131;BME280;18639;50.716;7.086;2023-05-25T05:09:05;101321.38;;;8.97;100.00
32131;BME280;18639;50.716;7.086;2023-05-25T05:11:31;101352.50;;;9.13;100.00
32131;BME280;18639;50.716;7.086;2023-05-25T05:13:56;101358.53;;;9.12;100.00
32131;BME280;18639;50.716;7.086;2023-05-25T05:16:23;101367.41;;;9.25;100.00
32131;BME280;18639;50.716;7.086;2023-05-25T05:18:48;101364.84;;;9.25;100.00
32131;BME280;18639;50.716;7.086;2023-05-25T05:21:13;101366.41;;;9.29;100.00
32131;BME280;18639;50.716;7.086;2023-05-25T05:23:42;101379.34;;;9.48;100.00
32131;BME280;18639;50.716;7.086;2023-05-25T05:26:07;101373.03;;;9.55;100.00
32131;BME280;18639;50.716;7.086;2023-05-25T05:28:35;101372.94;;;9.56;100.00
32131;BME280;18639;50.716;7.086;2023-05-25T05:31:00;101374.97;;;9.68;100.00
32131;BME280;18639;50.716;7.086;2023-05-25T05:33:26;101330.53;;;9.43;100.00
32131;BME280;18639;50.716;7.086;2023-05-25T05:35:51;101375.97;;;9.85;100.00
32131;BME280;18639;50.716;7.086;2023-05-25T05:38:17;101339.84;;;9.66;100.00
32131;BME280;18639;50.716;7.086;2023-05-25T05:40:43;101306.97;;;9.51;100.00
32131;BME280;18639;50.716;7.086;2023-05-25T05:43:13;101384.03;;;10.16;100.00
32131;BME280;18639;50.716;7.086;2023-05-25T05:45:38;101376.91;;;10.21;100.00
32131;BME280;18639;50.716;7.086;2023-05-25T05:48:04;101386.66;;;10.33;100.00
32131;BME280;18639;50.716;7.086;2023-05-25T05:50:36;101347.75;;;10.19;100.00
32131;BME280;18639;50.716;7.086;2023-05-25T05:53:02;101343.75;;;10.31;100.00
32131;BME280;18639;50.716;7.086;2023-05-25T05:55:27;101353.56;;;10.41;100.00
32131;BME280;18639;50.716;7.086;2023-05-25T05:57:52;101370.03;;;10.58;100.00
32131;BME280;18639;50.716;7.086;2023-05-25T06:00:18;101360.06;;;10.67;100.00
32131;BME280;18639;50.716;7.086;2023-05-25T06:02:43;101370.94;;;10.74;100.00
32131;BME280;18639;50.716;7.086;2023-05-25T06:05:09;101388.13;;;10.92;100.00
32131;BME280;18639;50.716;7.086;2023-05-25T06:07:34;101397.13;;;11.02;100.00
32131;BME280;18639;50.716;7.086;2023-05-25T06:10:00;101368.13;;;10.95;100.00
32131;BME280;18639;50.716;7.086;2023-05-25T06:12:26;101375.06;;;11.12;100.00
32131;BME280;18639;50.716;7.086;2023-05-25T06:14:51;101316.81;;;10.88;100.00
32131;BME280;18639;50.716;7.086;2023-05-25T06:17:17;101396.72;;;11.44;100.00
32131;BME280;18639;50.716;7.086;2023-05-25T06:19:42;101379.63;;;11.57;100.00
32131;BME280;18639;50.716;7.086;2023-05-25T06:22:07;101361.00;;;11.51;100.00
32131;BME280;18639;50.716;7.086;2023-05-25T06:24:33;101383.88;;;11.75;100.00
32131;BME280;18639;50.716;7.086;2023-05-25T06:26:58;101402.44;;;11.84;100.00
32131;BME280;18639;50.716;7.086;2023-05-25T06:29:23;101317.66;;;11.54;100.00
32131;BME280;18639;50.716;7.086;2023-05-25T06:31:49;101331.75;;;11.81;100.00
32131;BME280;18639;50.716;7.086;2023-05-25T06:34:14;101381.50;;;12.19;100.00
32131;BME280;18639;50.716;7.086;2023-05-25T06:36:39;101390.88;;;12.38;100.00
32131;BME280;18639;50.716;7.086;2023-05-25T06:39:05;101355.00;;;12.30;100.00
32131;BME280;18639;50.716;7.086;2023-05-25T06:41:30;101402.88;;;12.70;100.00
32131;BME280;18639;50.716;7.086;2023-05-25T06:43:56;101329.84;;;12.32;100.00
32131;BME280;18639;50.716;7.086;2023-05-25T06:46:21;101377.31;;;12.78;100.00
32131;BME280;18639;50.716;7.086;2023-05-25T06:48:52;101388.91;;;13.02;100.00
32131;BME280;18639;50.716;7.086;2023-05-25T06:51:18;101370.88;;;13.15;100.00
32131;BME280;18639;50.716;7.086;2023-05-25T06:53:43;101399.41;;;13.45;100.00
32131;BME280;18639;50.716;7.086;2023-05-25T06:56:08;101406.81;;;13.65;100.00
32131;BME280;18639;50.716;7.086;2023-05-25T06:58:34;101362.84;;;13.48;100.00
32131;BME280;18639;50.716;7.086;2023-05-25T07:00:59;101362.03;;;13.62;100.00
32131;BME280;18639;50.716;7.086;2023-05-25T07:03:25;101403.28;;;14.09;100.00
32131;BME280;18639;50.716;7.086;2023-05-25T07:05:50;101406.13;;;14.18;100.00
32131;BME280;18639;50.716;7.086;2023-05-25T07:08:16;101416.78;;;14.42;100.00
32131;BME280;18639;50.716;7.086;2023-05-25T07:10:41;101397.63;;;14.43;100.00
32131;BME280;18639;50.716;7.086;2023-05-25T07:13:08;101407.81;;;14.60;98.02
32131;BME280;18639;50.716;7.086;2023-05-25T07:15:34;101377.19;;;14.51;99.00
32131;BME280;18639;50.716;7.086;2023-05-25T07:17:59;101398.91;;;14.77;99.32
32131;BME280;18639;50.716;7.086;2023-05-25T07:20:24;101386.47;;;14.95;96.06
32131;BME280;18639;50.716;7.086;2023-05-25T07:22:51;101415.66;;;15.25;91.68
32131;BME280;18639;50.716;7.086;2023-05-25T07:25:17;101386.56;;;14.93;93.17
32131;BME280;18639;50.716;7.086;2023-05-25T07:27:47;101412.75;;;15.17;90.04
32131;BME280;18639;50.716;7.086;2023-05-25T07:30:12;101395.66;;;15.00;91.70
32131;BME280;18639;50.716;7.086;2023-05-25T07:32:38;101375.66;;;15.01;93.48
32131;BME280;18639;50.716;7.086;2023-05-25T07:35:03;101386.72;;;15.17;95.77
32131;BME280;18639;50.716;7.086;2023-05-25T07:37:29;101406.13;;;15.38;87.36
32131;BME280;18639;50.716;7.086;2023-05-25T07:39:54;101403.78;;;15.34;90.96
32131;BME280;18639;50.716;7.086;2023-05-25T07:42:20;101394.56;;;15.55;92.99
32131;BME280;18639;50.716;7.086;2023-05-25T07:44:47;101381.72;;;15.39;89.70
32131;BME280;18639;50.716;7.086;2023-05-25T07:47:13;101394.31;;;15.71;89.68
32131;BME280;18639;50.716;7.086;2023-05-25T07:49:38;101397.03;;;15.82;87.50
32131;BME280;18639;50.716;7.086;2023-05-25T07:52:04;101403.06;;;15.95;87.72
32131;BME280;18639;50.716;7.086;2023-05-25T07:54:30;101365.88;;;15.80;85.92
32131;BME280;18639;50.716;7.086;2023-05-25T07:56:55;101390.00;;;16.08;85.51
32131;BME280;18639;50.716;7.086;2023-05-25T07:59:20;101376.47;;;16.03;86.29
32131;BME280;18639;50.716;7.086;2023-05-25T08:01:46;101401.66;;;16.15;83.74
32131;BME280;18639;50.716;7.086;2023-05-25T08:04:11;101403.28;;;16.28;87.49
32131;BME280;18639;50.716;7.086;2023-05-25T08:06:36;101398.28;;;16.25;84.00
32131;BME280;18639;50.716;7.086;2023-05-25T08:09:03;101386.69;;;16.29;79.72
32131;BME280;18639;50.716;7.086;2023-05-25T08:11:29;101411.91;;;16.41;82.68
32131;BME280;18639;50.716;7.086;2023-05-25T08:13:55;101387.63;;;16.52;80.69
32131;BME280;18639;50.716;7.086;2023-05-25T08:16:20;101408.88;;;16.35;79.93
32131;BME280;18639;50.716;7.086;2023-05-25T08:18:46;101406.34;;;16.59;84.02
32131;BME280;18639;50.716;7.086;2023-05-25T08:21:12;101395.22;;;16.68;82.56
32131;BME280;18639;50.716;7.086;2023-05-25T08:23:39;101402.44;;;16.99;78.93
32131;BME280;18639;50.716;7.086;2023-05-25T08:26:06;101393.56;;;17.02;74.63
32131;BME280;18639;50.716;7.086;2023-05-25T08:28:32;101394.03;;;16.96;73.67
32131;BME280;18639;50.716;7.086;2023-05-25T08:30:57;101379.75;;;16.89;74.28
32131;BME280;18639;50.716;7.086;2023-05-25T08:33:22;101397.72;;;16.93;75.03
32131;BME280;18639;50.716;7.086;2023-05-25T08:35:48;101392.13;;;16.98;74.82
32131;BME280;18639;50.716;7.086;2023-05-25T08:38:14;101364.22;;;16.87;76.32
32131;BME280;18639;50.716;7.086;2023-05-25T08:40:40;101406.44;;;17.27;74.33
32131;BME280;18639;50.716;7.086;2023-05-25T08:43:06;101401.84;;;17.31;69.89
32131;BME280;18639;50.716;7.086;2023-05-25T08:45:32;101379.75;;;17.35;76.67
32131;BME280;18639;50.716;7.086;2023-05-25T08:47:58;101399.84;;;17.56;75.53
32131;BME280;18639;50.716;7.086;2023-05-25T08:50:25;101370.97;;;17.69;78.82
32131;BME280;18639;50.716;7.086;2023-05-25T08:52:52;101403.19;;;18.03;74.66
32131;BME280;18639;50.716;7.086;2023-05-25T08:55:21;101407.34;;;18.05;70.11
32131;BME280;18639;50.716;7.086;2023-05-25T08:57:54;101385.34;;;18.08;70.63
32131;BME280;18639;50.716;7.086;2023-05-25T09:00:30;101395.41;;;18.24;70.36
32131;BME280;18639;50.716;7.086;2023-05-25T09:03:16;101402.50;;;18.44;65.91
32131;BME280;18639;50.716;7.086;2023-05-25T09:05:42;101403.22;;;18.46;65.15
32131;BME280;18639;50.716;7.086;2023-05-25T09:08:07;101392.94;;;18.65;69.77
32131;BME280;18639;50.716;7.086;2023-05-25T09:10:35;101377.38;;;18.52;64.79
32131;BME280;18639;50.716;7.086;2023-05-25T09:13:01;101400.13;;;18.84;67.53
32131;BME280;18639;50.716;7.086;2023-05-25T09:15:27;101393.94;;;18.85;62.58
32131;BME280;18639;50.716;7.086;2023-05-25T09:17:52;101376.44;;;18.85;59.89
32131;BME280;18639;50.716;7.086;2023-05-25T09:20:18;101367.88;;;18.83;63.87
32131;BME280;18639;50.716;7.086;2023-05-25T09:22:45;101394.97;;;19.14;63.41
32131;BME280;18639;50.716;7.086;2023-05-25T09:25:16;101389.53;;;19.27;60.56
32131;BME280;18639;50.716;7.086;2023-05-25T09:27:41;101396.50;;;19.17;62.51
32131;BME280;18639;50.716;7.086;2023-05-25T09:30:07;101357.56;;;18.91;61.58
32131;BME280;18639;50.716;7.086;2023-05-25T09:32:33;101386.31;;;19.23;62.36
32131;BME280;18639;50.716;7.086;2023-05-25T09:35:09;101375.59;;;19.26;62.01
32131;BME280;18639;50.716;7.086;2023-05-25T09:37:35;101386.25;;;19.14;62.74
32131;BME280;18639;50.716;7.086;2023-05-25T09:40:07;101401.25;;;19.23;60.15
32131;BME280;18639;50.716;7.086;2023-05-25T09:42:33;101397.84;;;19.11;61.00
32131;BME280;18639;50.716;7.086;2023-05-25T09:44:59;101393.84;;;18.75;63.67
32131;BME280;18639;50.716;7.086;2023-05-25T09:47:28;101390.50;;;18.84;62.37
32131;BME280;18639;50.716;7.086;2023-05-25T09:49:55;101398.88;;;18.67;63.02
32131;BME280;18639;50.716;7.086;2023-05-25T09:52:20;101397.97;;;19.10;63.62
32131;BME280;18639;50.716;7.086;2023-05-25T09:54:50;101359.97;;;19.76;67.34
32131;BME280;18639;50.716;7.086;2023-05-25T09:57:17;101379.59;;;20.79;59.36
32131;BME280;18639;50.716;7.086;2023-05-25T09:59:43;101375.03;;;21.57;58.08
32131;BME280;18639;50.716;7.086;2023-05-25T10:02:10;101362.81;;;22.20;51.97
32131;BME280;18639;50.716;7.086;2023-05-25T10:04:35;101378.09;;;22.87;54.79
32131;BME280;18639;50.716;7.086;2023-05-25T10:07:02;101375.09;;;22.64;50.14
32131;BME280;18639;50.716;7.086;2023-05-25T10:09:29;101388.53;;;22.08;50.44
32131;BME280;18639;50.716;7.086;2023-05-25T10:11:56;101385.22;;;21.42;53.71
32131;BME280;18639;50.716;7.086;2023-05-25T10:14:25;101381.78;;;21.22;54.90
32131;BME280;18639;50.716;7.086;2023-05-25T10:16:53;101384.81;;;21.27;54.94
32131;BME280;18639;50.716;7.086;2023-05-25T10:19:20;101349.50;;;21.39;55.63
32131;BME280;18639;50.716;7.086;2023-05-25T10:21:52;101370.44;;;21.96;53.29
32131;BME280;18639;50.716;7.086;2023-05-25T10:24:37;101380.59;;;22.71;52.37
32131;BME280;18639;50.716;7.086;2023-05-25T10:27:07;101384.03;;;23.33;51.72
32131;BME280;18639;50.716;7.086;2023-05-25T10:29:36;101373.88;;;22.41;48.91
32131;BME280;18639;50.716;7.086;2023-05-25T10:32:03;101374.25;;;22.11;49.92
32131;BME280;18639;50.716;7.086;2023-05-25T10:34:29;101370.41;;;22.41;51.08
32131;BME280;18639;50.716;7.086;2023-05-25T10:36:55;101377.78;;;22.55;52.57
32131;BME280;18639;50.716;7.086;2023-05-25T10:39:21;101365.59;;;22.36;47.63
32131;BME280;18639;50.716;7.086;2023-05-25T10:41:48;101367.44;;;21.81;49.53
32131;BME280;18639;50.716;7.086;2023-05-25T10:44:15;101298.03;;;21.27;51.46
32131;BME280;18639;50.716;7.086;2023-05-25T10:46:41;101335.72;;;21.09;50.80
32131;BME280;18639;50.716;7.086;2023-05-25T10:49:07;101373.13;;;20.83;52.51
32131;BME280;18639;50.716;7.086;2023-05-25T10:51:39;101362.63;;;20.45;54.22
32131;BME280;18639;50.716;7.086;2023-05-25T10:54:05;101370.50;;;20.35;53.88
32131;BME280;18639;50.716;7.086;2023-05-25T10:56:31;101361.84;;;20.14;55.13
32131;BME280;18639;50.716;7.086;2023-05-25T10:58:56;101341.94;;;20.02;55.69
32131;BME280;18639;50.716;7.086;2023-05-25T11:01:22;101310.28;;;19.94;55.42
32131;BME280;18639;50.716;7.086;2023-05-25T11:03:52;101354.00;;;20.24;55.00
32131;BME280;18639;50.716;7.086;2023-05-25T11:06:19;101366.16;;;20.25;55.58
32131;BME280;18639;50.716;7.086;2023-05-25T11:08:58;101335.03;;;19.91;56.33
32131;BME280;18639;50.716;7.086;2023-05-25T11:14:27;101327.91;;;19.72;56.86
32131;BME280;18639;50.716;7.086;2023-05-25T11:17:09;101359.06;;;19.96;56.41
32131;BME280;18639;50.716;7.086;2023-05-25T11:19:45;101347.75;;;19.96;56.28
32131;BME280;18639;50.716;7.086;2023-05-25T11:22:12;101313.13;;;19.62;55.56
32131;BME280;18639;50.716;7.086;2023-05-25T11:24:39;101338.31;;;19.84;56.61
32131;BME280;18639;50.716;7.086;2023-05-25T11:27:05;101280.84;;;19.31;56.26
32131;BME280;18639;50.716;7.086;2023-05-25T11:29:33;101341.28;;;19.60;55.73
32131;BME280;18639;50.716;7.086;2023-05-25T11:32:00;101331.25;;;19.44;56.62
32131;BME280;18639;50.716;7.086;2023-05-25T11:34:26;101334.59;;;19.46;56.50
32131;BME280;18639;50.716;7.086;2023-05-25T11:36:57;101329.59;;;19.43;55.70
32131;BME280;18639;50.716;7.086;2023-05-25T11:39:26;101327.94;;;19.42;56.09
32131;BME280;18639;50.716;7.086;2023-05-25T11:41:54;101312.16;;;19.32;57.65
32131;BME280;18639;50.716;7.086;2023-05-25T11:44:27;101329.09;;;19.49;58.81
32131;BME280;18639;50.716;7.086;2023-05-25T11:46:55;101306.47;;;19.27;56.59
32131;BME280;18639;50.716;7.086;2023-05-25T11:49:26;101317.53;;;19.31;55.58
32131;BME280;18639;50.716;7.086;2023-05-25T11:52:04;101325.13;;;19.55;56.00
32131;BME280;18639;50.716;7.086;2023-05-25T11:54:33;101333.00;;;19.64;56.15
32131;BME280;18639;50.716;7.086;2023-05-25T11:57:00;101325.81;;;19.57;56.77
32131;BME280;18639;50.716;7.086;2023-05-25T11:59:27;101320.25;;;19.50;58.05
32131;BME280;18639;50.716;7.086;2023-05-25T12:02:00;101325.81;;;19.66;56.67
32131;BME280;18639;50.716;7.086;2023-05-25T12:04:27;101316.56;;;19.62;56.28
32131;BME280;18639;50.716;7.086;2023-05-25T12:07:06;101336.63;;;19.73;57.09
32131;BME280;18639;50.716;7.086;2023-05-25T12:09:33;101330.09;;;19.58;55.54
32131;BME280;18639;50.716;7.086;2023-05-25T12:11:59;101322.06;;;19.29;56.06
32131;BME280;18639;50.716;7.086;2023-05-25T12:14:25;101334.53;;;19.37;55.73
32131;BME280;18639;50.716;7.086;2023-05-25T12:16:50;101320.78;;;19.44;57.59
32131;BME280;18639;50.716;7.086;2023-05-25T12:19:16;101285.66;;;19.35;56.29
32131;BME280;18639;50.716;7.086;2023-05-25T12:21:42;101307.19;;;19.60;59.28
32131;BME280;18639;50.716;7.086;2023-05-25T12:24:09;101266.19;;;19.28;56.60
32131;BME280;18639;50.716;7.086;2023-05-25T12:26:46;101313.41;;;19.59;57.92
32131;BME280;18639;50.716;7.086;2023-05-25T12:29:11;101292.31;;;19.40;58.91
32131;BME280;18639;50.716;7.086;2023-05-25T12:31:37;101307.47;;;19.36;56.93
32131;BME280;18639;50.716;7.086;2023-05-25T12:34:08;101295.59;;;19.32;57.76
32131;BME280;18639;50.716;7.086;2023-05-25T12:39:10;101306.13;;;19.42;58.95
32131;BME280;18639;50.716;7.086;2023-05-25T12:44:23;101276.47;;;19.11;58.16
32131;BME280;18639;50.716;7.086;2023-05-25T12:46:50;101284.50;;;19.19;59.24
32131;BME280;18639;50.716;7.086;2023-05-25T12:49:28;101316.91;;;19.18;58.29
32131;BME280;18639;50.716;7.086;2023-05-25T12:51:54;101332.63;;;19.18;60.05
32131;BME280;18639;50.716;7.086;2023-05-25T12:54:42;101312.22;;;19.12;59.93
32131;BME280;18639;50.716;7.086;2023-05-25T12:57:13;101306.16;;;18.90;61.33